Time;durP1;ratioP1;P1;durP2;ratioP2;P2;SDS_P1;SDS_P2;PMS_P1;PMS_P2;Temp;Humidity;BMP_temperature;BMP_pressure;BME280_temperature;BME280_humidity;BME280_pressure;Samples;Min_cycle;Max_cycle;Signal;HPM_P1;HPM_P2
2023/01/26 00:01:44;;;;;;;;;45.75;38.00;;;;;2.61;100.00;102327.53;5016153;28;57935;-79
2023/01/26 00:04:10;;;;;;;;;60.00;36.00;;;;;2.50;100.00;102316.94;5015738;28;45516;-79
2023/01/26 00:06:35;;;;;;;;;66.50;39.00;;;;;2.46;100.00;102309.97;5016872;28;45354;-79
2023/01/26 00:09:00;;;;;;;;;52.00;37.25;;;;;2.42;100.00;102300.44;5015491;28;70333;-79
2023/01/26 00:11:28;;;;;;;;;55.50;33.50;;;;;2.39;100.00;102298.63;5016093;28;57407;-79
2023/01/26 00:13:54;;;;;;;;;49.50;38.25;;;;;2.37;100.00;102294.28;5016779;28;45685;-79
2023/01/26 00:16:20;;;;;;;;;44.25;33.50;;;;;2.41;100.00;102290.97;5015082;28;45321;-79
2023/01/26 00:18:45;;;;;;;;;59.25;39.75;;;;;2.36;100.00;102285.69;4995409;28;46723;-79
2023/01/26 00:21:14;;;;;;;;;63.25;40.25;;;;;2.42;100.00;102285.88;4996707;28;45428;-79
2023/01/26 00:23:39;;;;;;;;;48.25;39.75;;;;;2.42;100.00;102278.16;4995714;28;45557;-79
2023/01/26 00:26:06;;;;;;;;;37.75;33.25;;;;;2.39;100.00;102272.06;4995857;28;67066;-79
2023/01/26 00:28:31;;;;;;;;;54.75;33.50;;;;;2.44;100.00;102273.06;4996636;28;45424;-79
2023/01/26 00:31:09;;;;;;;;;51.75;35.25;;;;;2.49;100.00;102274.09;4994310;28;66057;-79
2023/01/26 00:33:35;;;;;;;;;50.00;37.25;;;;;2.53;100.00;102265.63;4995088;28;45390;-79
2023/01/26 00:36:00;;;;;;;;;57.25;37.50;;;;;2.66;100.00;102272.00;4995482;28;69235;-79
2023/01/26 00:38:25;;;;;;;;;42.25;29.75;;;;;2.69;100.00;102257.53;4995393;28;68233;-79
2023/01/26 00:40:51;;;;;;;;;45.75;32.00;;;;;2.75;100.00;102263.63;4995689;28;66406;-79
2023/01/26 00:43:16;;;;;;;;;53.00;39.00;;;;;2.75;100.00;102246.53;4995017;28;61667;-79
2023/01/26 00:45:41;;;;;;;;;65.50;37.25;;;;;2.84;100.00;102257.06;4996120;28;45429;-79
2023/01/26 00:48:07;;;;;;;;;42.75;32.00;;;;;2.84;100.00;102239.06;4995313;28;71528;-79
2023/01/26 00:50:32;;;;;;;;;48.25;36.75;;;;;2.80;100.00;102232.06;4995481;28;68629;-79
2023/01/26 00:52:58;;;;;;;;;46.50;33.25;;;;;2.81;100.00;102233.84;4996272;28;45288;-79
2023/01/26 00:55:28;;;;;;;;;44.50;22.50;;;;;2.76;100.00;102219.09;4996151;28;45472;-79
2023/01/26 00:57:53;;;;;;;;;64.00;45.00;;;;;2.83;100.00;102228.72;4994202;28;46664;-79
2023/01/26 01:00:19;;;;;;;;;53.75;37.50;;;;;2.84;100.00;102228.78;4995280;28;71382;-79
2023/01/26 01:02:44;;;;;;;;;50.25;41.00;;;;;2.83;100.00;102226.16;4996209;28;45330;-79
2023/01/26 01:05:10;;;;;;;;;60.50;41.00;;;;;2.90;100.00;102228.06;4995923;28;51610;-79
2023/01/26 01:07:36;;;;;;;;;44.00;35.25;;;;;2.96;100.00;102225.66;4994610;28;45564;-79
2023/01/26 01:10:01;;;;;;;;;58.25;32.25;;;;;3.00;100.00;102206.03;4993797;28;61247;-79
2023/01/26 01:12:26;;;;;;;;;50.75;40.25;;;;;3.07;100.00;102211.38;4995791;28;45307;-78
2023/01/26 01:14:52;;;;;;;;;58.50;40.50;;;;;3.10;100.00;102206.31;4994777;28;45613;-79
2023/01/26 01:17:17;;;;;;;;;48.75;36.75;;;;;3.08;100.00;102209.66;4994884;28;68668;-79
2023/01/26 01:19:42;;;;;;;;;47.75;35.25;;;;;3.09;100.00;102207.13;4994908;28;66250;-79
2023/01/26 01:22:08;;;;;;;;;50.00;32.00;;;;;3.08;100.00;102212.22;4994959;28;63372;-79
2023/01/26 01:24:34;;;;;;;;;61.25;37.25;;;;;3.10;100.00;102213.13;4994995;28;67042;-79
2023/01/26 01:27:00;;;;;;;;;53.50;39.50;;;;;3.07;100.00;102213.94;4995406;28;46370;-79
2023/01/26 01:29:25;;;;;;;;;49.50;34.25;;;;;3.08;100.00;102205.41;4995622;28;45531;-79
2023/01/26 01:31:50;;;;;;;;;51.00;36.50;;;;;3.10;100.00;102211.44;4995024;28;66251;-79
2023/01/26 01:34:16;;;;;;;;;42.25;31.75;;;;;3.09;100.00;102206.25;5007215;28;68282;-79
2023/01/26 01:36:41;;;;;;;;;59.50;34.00;;;;;3.16;100.00;102205.59;4994571;28;70714;-79
2023/01/26 01:39:06;;;;;;;;;55.25;37.50;;;;;3.14;100.00;102198.66;4995445;28;49024;-79
2023/01/26 01:41:32;;;;;;;;;51.25;33.50;;;;;3.16;100.00;102208.16;4977702;28;45510;-79
2023/01/26 01:44:17;;;;;;;;;60.75;32.00;;;;;3.19;100.00;102203.06;4995465;28;45363;-79
2023/01/26 01:46:56;;;;;;;;;52.25;41.00;;;;;3.20;100.00;102204.81;4995379;28;46282;-79
2023/01/26 01:49:37;;;;;;;;;50.25;31.50;;;;;3.18;100.00;102198.78;4977882;28;45418;-79
2023/01/26 01:52:10;;;;;;;;;56.25;31.25;;;;;3.22;100.00;102204.88;4995588;28;45338;-79
2023/01/26 01:54:44;;;;;;;;;53.00;34.75;;;;;3.20;100.00;102203.97;4979172;28;45406;-79
2023/01/26 01:57:14;;;;;;;;;63.50;32.75;;;;;3.24;100.00;102200.63;4998481;28;45630;-79
2023/01/26 01:59:54;;;;;;;;;52.50;35.75;;;;;3.23;100.00;102196.28;4981399;28;45812;-79
2023/01/26 02:02:20;;;;;;;;;42.00;33.00;;;;;3.17;100.00;102186.72;4998873;28;45287;-79
2023/01/26 02:04:45;;;;;;;;;58.25;34.50;;;;;3.20;100.00;102191.97;4980390;28;70560;-79
2023/01/26 02:07:11;;;;;;;;;65.50;42.75;;;;;3.19;100.00;102189.34;4980113;28;70120;-79
2023/01/26 02:12:25;;;;;;;;;43.50;31.50;;;;;3.10;100.00;102180.56;4983735;28;45354;-79
2023/01/26 02:14:51;;;;;;;;;57.75;40.75;;;;;3.12;100.00;102198.63;4981213;28;46010;-79
2023/01/26 02:17:17;;;;;;;;;44.25;30.50;;;;;3.16;100.00;102199.53;4980098;28;65715;-79
2023/01/26 02:20:01;;;;;;;;;51.00;38.50;;;;;3.13;100.00;102195.22;4998454;28;45474;-79
2023/01/26 02:22:51;;;;;;;;;54.00;35.00;;;;;3.10;100.00;102196.00;4998564;28;45366;-79
2023/01/26 02:25:41;;;;;;;;;49.25;33.50;;;;;3.09;100.00;102195.97;4980499;28;45490;-79
2023/01/26 02:28:06;;;;;;;;;50.25;34.00;;;;;3.00;100.00;102199.16;4998190;28;46631;-79
2023/01/26 02:30:32;;;;;;;;;56.00;36.00;;;;;2.96;100.00;102197.34;4998207;28;45386;-77
2023/01/26 02:32:57;;;;;;;;;54.50;35.75;;;;;2.91;100.00;102188.63;4998134;28;45372;-79
2023/01/26 02:35:22;;;;;;;;;37.75;28.75;;;;;2.85;100.00;102181.63;4979961;28;57023;-79
2023/01/26 02:37:48;;;;;;;;;55.25;34.75;;;;;2.87;100.00;102182.53;4997742;28;63848;-79
2023/01/26 02:40:33;;;;;;;;;55.50;36.50;;;;;2.87;100.00;102182.53;4980262;28;45939;-79
2023/01/26 02:42:58;;;;;;;;;46.75;31.25;;;;;2.88;100.00;102178.28;4984163;28;45439;-79
2023/01/26 02:45:25;;;;;;;;;58.00;37.00;;;;;2.93;100.00;102176.69;4997163;28;65532;-79
2023/01/26 02:47:50;;;;;;;;;44.00;36.00;;;;;2.96;100.00;102183.63;4979673;28;72636;-79
2023/01/26 02:50:16;;;;;;;;;57.75;30.50;;;;;2.93;100.00;102170.69;4998215;28;45299;-77
2023/01/26 02:52:41;;;;;;;;;59.00;33.50;;;;;2.87;100.00;102159.41;4997981;28;46001;-77
2023/01/26 02:55:24;;;;;;;;;58.75;36.75;;;;;2.98;100.00;102166.53;4997730;28;45383;-77
2023/01/26 02:57:58;;;;;;;;;52.75;38.25;;;;;3.00;100.00;102165.72;4982599;28;45256;-77
2023/01/26 03:00:26;;;;;;;;;52.75;32.25;;;;;2.97;100.00;102169.91;4997941;28;45409;-77
2023/01/26 03:02:53;;;;;;;;;57.25;41.00;;;;;2.88;100.00;102144.84;4998177;28;45402;-77
2023/01/26 03:05:18;;;;;;;;;40.00;32.25;;;;;2.98;100.00;102158.81;4980244;28;45419;-79
2023/01/26 03:07:43;;;;;;;;;44.25;34.00;;;;;3.00;100.00;102162.28;4979814;28;45382;-77
2023/01/26 03:10:09;;;;;;;;;45.75;36.75;;;;;3.00;100.00;102162.28;4997348;28;45334;-79
2023/01/26 03:12:36;;;;;;;;;54.75;36.00;;;;;2.98;100.00;102151.09;4997872;28;45559;-79
2023/01/26 03:17:45;;;;;;;;;46.25;31.50;;;;;3.03;100.00;102157.25;4997606;28;45386;-79
2023/01/26 03:28:23;;;;;;;;;42.50;34.50;;;;;3.06;100.00;102149.56;4997629;28;45576;-79
2023/01/26 03:30:49;;;;;;;;;48.00;28.75;;;;;3.10;100.00;102148.81;4997345;28;45368;-78
2023/01/26 03:33:18;;;;;;;;;45.25;27.00;;;;;3.08;100.00;102145.34;4997389;28;45291;-79
2023/01/26 03:35:44;;;;;;;;;37.25;26.50;;;;;3.08;100.00;102143.66;4997631;28;45335;-78
2023/01/26 03:38:09;;;;;;;;;33.75;25.50;;;;;3.10;100.00;102144.56;4996998;28;46568;-79
2023/01/26 03:56:59;;;;;;;;;40.00;25.75;;;;;3.06;100.00;102129.00;4997142;28;45355;-77
2023/01/26 03:59:36;;;;;;;;;47.00;30.25;;;;;3.09;100.00;102131.66;4996340;28;68042;-78
2023/01/26 04:10:18;;;;;;;;;40.50;27.00;;;;;3.07;100.00;102117.88;4996954;28;45802;-79
2023/01/26 04:12:44;;;;;;;;;36.25;26.75;;;;;3.17;100.00;102124.09;4996881;28;45377;-79
2023/01/26 04:23:21;;;;;;;;;36.50;24.75;;;;;3.06;100.00;102119.56;4996678;28;45629;-79
2023/01/26 04:25:47;;;;;;;;;28.75;20.75;;;;;3.07;100.00;102120.44;4996214;28;59127;-79
2023/01/26 04:28:12;;;;;;;;;40.25;27.00;;;;;3.14;100.00;102119.78;4979213;28;46021;-79
2023/01/26 04:30:38;;;;;;;;;39.75;26.75;;;;;3.14;100.00;102121.44;4995760;28;65731;-78
2023/01/26 04:33:03;;;;;;;;;43.25;24.50;;;;;3.12;100.00;102113.72;4985085;28;45436;-79
2023/01/26 04:35:28;;;;;;;;;38.75;25.00;;;;;3.08;100.00;102120.50;4995935;28;45497;-78
2023/01/26 04:37:54;;;;;;;;;33.00;25.00;;;;;3.14;100.00;102122.34;4995645;28;68491;-79
2023/01/26 04:40:19;;;;;;;;;27.50;22.00;;;;;3.20;100.00;102124.19;4995649;28;71581;-79
2023/01/26 04:42:45;;;;;;;;;37.75;25.50;;;;;3.18;100.00;102120.72;4996304;28;45543;-79
2023/01/26 04:45:10;;;;;;;;;28.25;23.25;;;;;3.22;100.00;102122.53;4996595;28;45409;-79
2023/01/26 04:47:36;;;;;;;;;38.50;25.00;;;;;3.23;100.00;102124.25;4996656;28;45409;-79
2023/01/26 04:50:01;;;;;;;;;33.75;21.50;;;;;3.25;100.00;102123.47;4995880;28;46362;-79
2023/01/26 04:52:26;;;;;;;;;34.00;24.25;;;;;3.18;100.00;102107.84;4996090;28;50324;-79
2023/01/26 04:54:52;;;;;;;;;37.00;28.50;;;;;3.19;100.00;102110.44;4996280;28;45425;-79
2023/01/26 04:57:22;;;;;;;;;37.50;25.00;;;;;3.22;100.00;102127.66;4995361;28;64497;-79
2023/01/26 04:59:47;;;;;;;;;41.00;30.50;;;;;3.21;100.00;102131.97;4996099;28;46145;-78
2023/01/26 05:02:12;;;;;;;;;47.75;28.50;;;;;3.22;100.00;102132.81;4996103;28;45402;-79
2023/01/26 05:04:38;;;;;;;;;39.50;29.25;;;;;3.20;100.00;102125.06;4995930;28;45337;-79
2023/01/26 05:07:03;;;;;;;;;43.00;28.00;;;;;3.20;100.00;102119.91;4996230;28;45278;-79
2023/01/26 05:09:28;;;;;;;;;39.00;29.25;;;;;3.17;100.00;102124.97;4996012;28;46238;-79
2023/01/26 05:12:31;;;;;;;;;42.50;27.00;;;;;3.15;100.00;102128.34;4995115;28;71625;-79
2023/01/26 05:14:39;;;;;;;;;39.00;27.00;;;;;3.16;100.00;102128.41;4995854;28;45349;-78
2023/01/26 05:17:04;;;;;;;;;46.75;31.50;;;;;3.16;100.00;102130.97;4995087;28;68488;-79
2023/01/26 05:19:29;;;;;;;;;39.25;21.75;;;;;3.13;100.00;102123.16;4994569;28;71134;-79
2023/01/26 05:21:55;;;;;;;;;44.25;25.75;;;;;3.04;100.00;102098.06;4995029;28;68709;-79
2023/01/26 05:24:20;;;;;;;;;37.50;27.25;;;;;3.12;100.00;102125.69;4995556;28;50690;-79
2023/01/26 05:26:45;;;;;;;;;44.50;30.75;;;;;3.05;100.00;102128.13;4995226;28;63439;-79
2023/01/26 05:29:11;;;;;;;;;37.75;30.50;;;;;3.02;100.00;102132.31;4995577;28;71730;-76
2023/01/26 05:31:36;;;;;;;;;47.00;32.75;;;;;2.99;100.00;102132.25;4998495;28;70095;-79
2023/01/26 05:34:01;;;;;;;;;55.75;33.25;;;;;2.94;100.00;102119.28;4998940;28;45366;-79
2023/01/26 05:36:27;;;;;;;;;46.50;29.75;;;;;2.94;100.00;102121.00;4999371;28;45286;-79
2023/01/26 05:38:52;;;;;;;;;46.00;31.00;;;;;2.94;100.00;102127.00;4998287;28;73332;-79
2023/01/26 05:41:17;;;;;;;;;46.75;34.00;;;;;2.93;100.00;102134.66;4980954;28;70760;-79
2023/01/26 05:43:43;;;;;;;;;34.25;24.50;;;;;2.96;100.00;102138.19;4999669;28;45370;-79
2023/01/26 05:46:08;;;;;;;;;47.25;36.25;;;;;2.95;100.00;102126.16;4998336;28;70160;-78
2023/01/26 05:48:33;;;;;;;;;40.00;25.00;;;;;2.97;100.00;102126.19;4997959;28;71292;-79
2023/01/26 05:50:59;;;;;;;;;53.75;32.75;;;;;3.05;100.00;102129.84;4999297;28;45339;-79
2023/01/26 05:53:24;;;;;;;;;45.50;32.00;;;;;3.08;100.00;102129.91;4998470;28;62366;-79
2023/01/26 05:55:49;;;;;;;;;40.75;31.50;;;;;3.13;100.00;102125.75;4999298;28;45386;-79
2023/01/26 05:58:15;;;;;;;;;48.25;28.25;;;;;3.12;100.00;102129.16;4999051;28;46107;-79
2023/01/26 06:00:40;;;;;;;;;50.00;30.25;;;;;3.09;100.00;102132.50;4998716;28;51923;-79
2023/01/26 06:03:05;;;;;;;;;41.25;30.25;;;;;3.01;100.00;102113.47;4998720;28;45288;-79
2023/01/26 06:05:31;;;;;;;;;49.25;29.75;;;;;3.01;100.00;102122.84;4999011;28;45441;-79
2023/01/26 06:07:56;;;;;;;;;50.50;37.00;;;;;3.04;100.00;102135.81;4997918;28;71516;-78
2023/01/26 06:10:21;;;;;;;;;49.50;33.25;;;;;3.01;100.00;102130.56;4998031;28;70031;-79
2023/01/26 06:12:47;;;;;;;;;46.50;32.75;;;;;3.04;100.00;102141.81;4998892;28;45405;-78
2023/01/26 06:15:12;;;;;;;;;46.00;32.75;;;;;3.03;100.00;102136.66;4998380;28;54452;-79
2023/01/26 06:17:38;;;;;;;;;43.25;33.75;;;;;3.01;100.00;102134.03;4998049;28;46178;-77
2023/01/26 06:20:05;;;;;;;;;44.25;30.25;;;;;3.03;100.00;102140.09;4981162;28;45473;-77
2023/01/26 06:22:30;;;;;;;;;45.50;32.25;;;;;3.02;100.00;102133.19;4998716;28;45326;-76
2023/01/26 06:24:55;;;;;;;;;48.25;25.00;;;;;3.05;100.00;102130.69;4998098;28;65168;-76
2023/01/26 06:27:21;;;;;;;;;45.00;33.25;;;;;3.08;100.00;102129.91;4997696;28;68848;-77
2023/01/26 06:29:46;;;;;;;;;41.50;30.75;;;;;3.08;100.00;102127.31;4997768;28;66797;-77
2023/01/26 06:32:12;;;;;;;;;40.25;25.50;;;;;3.06;100.00;102121.28;4998340;28;45446;-77
2023/01/26 06:34:38;;;;;;;;;35.50;25.75;;;;;3.05;100.00;102111.84;4980892;28;45428;-77
2023/01/26 06:37:03;;;;;;;;;36.00;24.75;;;;;3.10;100.00;102128.22;4995528;28;46207;-77
2023/01/26 06:39:28;;;;;;;;;36.50;26.75;;;;;3.04;100.00;102121.22;4989412;28;53535;-79
2023/01/26 06:41:54;;;;;;;;;44.50;30.00;;;;;3.04;100.00;102131.53;4997429;28;45303;-77
2023/01/26 06:44:19;;;;;;;;;34.00;24.25;;;;;3.03;100.00;102136.66;4996271;28;53417;-77
2023/01/26 06:46:44;;;;;;;;;32.75;26.00;;;;;3.00;100.00;102131.41;4992076;28;45972;-77
2023/01/26 06:49:10;;;;;;;;;39.25;29.00;;;;;3.00;100.00;102129.72;4977987;28;59048;-77
2023/01/26 06:51:42;;;;;;;;;36.25;24.25;;;;;3.06;100.00;102142.72;4989799;28;45437;-78
2023/01/26 06:54:11;;;;;;;;;51.75;31.50;;;;;3.08;100.00;102138.50;4998195;28;45365;-78
2023/01/26 06:56:37;;;;;;;;;47.50;29.50;;;;;3.12;100.00;102138.56;4997716;28;45459;-79
2023/01/26 06:59:03;;;;;;;;;38.25;27.25;;;;;3.09;100.00;102142.81;4997253;28;45536;-78
2023/01/26 07:01:35;;;;;;;;;48.75;28.50;;;;;3.01;100.00;102121.19;4979458;28;45476;-78
2023/01/26 07:04:01;;;;;;;;;32.25;23.00;;;;;3.17;100.00;102139.53;4980701;28;45616;-77
2023/01/26 07:06:26;;;;;;;;;42.25;31.75;;;;;3.16;100.00;102130.06;4997151;28;46199;-78
2023/01/26 07:08:51;;;;;;;;;35.75;25.00;;;;;3.14;100.00;102137.78;4978921;28;71428;-77
2023/01/26 07:11:18;;;;;;;;;48.00;31.50;;;;;3.14;100.00;102142.94;4997329;28;63180;-77
2023/01/26 07:13:44;;;;;;;;;45.50;33.50;;;;;3.12;100.00;102149.75;4979750;28;45322;-76
2023/01/26 07:16:11;;;;;;;;;35.50;30.50;;;;;3.10;100.00;102148.81;4996539;28;46854;-78
2023/01/26 07:18:37;;;;;;;;;49.75;31.25;;;;;3.07;100.00;102144.47;4965412;28;45517;-76
2023/01/26 07:21:04;;;;;;;;;45.50;29.75;;;;;3.10;100.00;102156.53;4984821;28;51050;-76
2023/01/26 07:23:29;;;;;;;;;52.50;32.25;;;;;3.07;100.00;102141.91;4997720;28;45420;-76
2023/01/26 07:25:54;;;;;;;;;47.00;28.00;;;;;3.05;100.00;102159.00;4997077;28;45498;-76
2023/01/26 07:28:20;;;;;;;;;37.25;30.00;;;;;2.95;100.00;102144.16;4996767;28;45479;-76
2023/01/26 07:30:45;;;;;;;;;46.75;33.50;;;;;3.00;100.00;102150.28;4990037;28;47769;-76
2023/01/26 07:33:11;;;;;;;;;48.50;33.25;;;;;2.97;100.00;102152.81;4996705;28;62194;-77
2023/01/26 07:35:36;;;;;;;;;46.75;31.25;;;;;3.02;100.00;102150.34;4979010;28;45367;-76
2023/01/26 07:38:05;;;;;;;;;32.00;25.75;;;;;3.07;100.00;102149.63;4997328;28;45450;-77
2023/01/26 07:40:30;;;;;;;;;37.75;24.75;;;;;3.12;100.00;102146.28;4997442;28;45385;-77
2023/01/26 07:42:58;;;;;;;;;39.75;25.25;;;;;3.18;100.00;102154.16;4996732;28;68114;-77
2023/01/26 07:45:24;;;;;;;;;41.00;30.25;;;;;3.18;100.00;102149.03;4996978;28;46257;-77
2023/01/26 07:47:49;;;;;;;;;42.00;29.25;;;;;3.20;100.00;102155.06;4979848;28;45454;-76
2023/01/26 07:50:14;;;;;;;;;45.25;29.75;;;;;3.27;100.00;102157.81;4996427;28;68546;-76
2023/01/26 07:52:40;;;;;;;;;37.25;25.25;;;;;3.30;100.00;102155.31;4997199;28;45351;-76
2023/01/26 07:55:06;;;;;;;;;36.25;23.50;;;;;3.36;100.00;102158.88;4997047;28;46588;-77
2023/01/26 07:57:32;;;;;;;;;41.00;30.25;;;;;3.37;100.00;102170.91;4996966;28;45212;-76
2023/01/26 07:59:58;;;;;;;;;45.25;35.50;;;;;3.36;100.00;102164.91;4996859;28;45251;-76
2023/01/26 08:02:23;;;;;;;;;57.25;34.25;;;;;3.38;100.00;102158.09;4996486;28;61643;-76
2023/01/26 08:04:48;;;;;;;;;43.50;29.00;;;;;3.33;100.00;102166.53;4997306;28;46105;-76
2023/01/26 08:07:14;;;;;;;;;52.50;33.50;;;;;3.27;100.00;102170.69;4997180;28;45347;-76
2023/01/26 08:09:39;;;;;;;;;37.75;28.00;;;;;3.26;100.00;102170.66;4996621;28;56733;-76
2023/01/26 08:12:06;;;;;;;;;38.50;32.00;;;;;3.33;100.00;102185.41;4996814;28;50579;-76
2023/01/26 08:14:31;;;;;;;;;46.50;28.00;;;;;3.37;100.00;102176.06;4996479;28;46357;-76
2023/01/26 08:16:57;;;;;;;;;44.00;24.50;;;;;3.43;100.00;102181.34;4996522;28;45413;-76
2023/01/26 08:19:22;;;;;;;;;52.75;31.00;;;;;3.48;100.00;102185.78;4996067;28;63561;-76
2023/01/26 08:21:47;;;;;;;;;46.25;31.50;;;;;3.52;100.00;102184.13;4996954;28;45260;-76
2023/01/26 08:24:13;;;;;;;;;38.00;29.00;;;;;3.56;100.00;102183.38;4996076;28;64575;-76
2023/01/26 08:26:38;;;;;;;;;50.75;29.50;;;;;3.66;100.00;102194.78;4996649;28;45310;-77
2023/01/26 08:29:03;;;;;;;;;36.75;26.00;;;;;3.76;100.00;102195.84;4996596;28;56326;-77
2023/01/26 08:31:29;;;;;;;;;47.50;32.00;;;;;3.82;100.00;102195.97;4996889;28;45533;-78
2023/01/26 08:33:55;;;;;;;;;39.75;26.00;;;;;3.87;100.00;102196.94;4995638;28;64501;-78
2023/01/26 08:36:21;;;;;;;;;35.00;29.25;;;;;3.93;100.00;102204.81;4995709;28;63491;-78
2023/01/26 08:38:46;;;;;;;;;38.75;26.25;;;;;3.91;100.00;102196.19;4996551;28;45322;-78
2023/01/26 08:41:11;;;;;;;;;41.00;25.50;;;;;3.99;100.00;102201.50;4996739;28;45543;-78
2023/01/26 08:43:37;;;;;;;;;47.75;27.75;;;;;4.06;100.00;102206.81;4995468;28;46424;-79
2023/01/26 08:46:03;;;;;;;;;44.25;20.75;;;;;4.05;100.00;102206.81;4996193;28;45343;-78
2023/01/26 08:48:30;;;;;;;;;33.75;23.50;;;;;4.05;100.00;102209.38;4973361;28;45541;-78
2023/01/26 08:50:57;;;;;;;;;40.50;30.00;;;;;4.07;100.00;102220.59;4974816;28;45571;-78
2023/01/26 08:53:22;;;;;;;;;42.25;24.00;;;;;4.03;100.00;102216.16;4957672;28;46357;-78
2023/01/26 08:55:48;;;;;;;;;38.75;31.50;;;;;3.95;100.00;102216.00;4976290;28;45543;-78
2023/01/26 08:58:13;;;;;;;;;37.25;27.25;;;;;3.93;100.00;102225.41;4958794;28;45402;-78
2023/01/26 09:00:39;;;;;;;;;48.00;31.75;;;;;3.91;100.00;102227.09;4976248;28;45355;-78
2023/01/26 09:03:04;;;;;;;;;36.25;29.00;;;;;3.92;100.00;102225.38;4957707;28;73484;-78
2023/01/26 09:05:32;;;;;;;;;34.75;26.25;;;;;3.83;100.00;102210.59;4974460;28;69979;-78
2023/01/26 09:07:57;;;;;;;;;40.25;28.75;;;;;3.92;100.00;102221.13;4959047;28;45354;-78
2023/01/26 09:10:23;;;;;;;;;50.50;38.75;;;;;3.98;100.00;102225.53;4958823;28;45390;-78
2023/01/26 09:12:49;;;;;;;;;39.75;27.00;;;;;3.97;100.00;102221.19;4975766;28;46207;-78
2023/01/26 09:15:14;;;;;;;;;44.25;30.75;;;;;4.00;100.00;102224.72;4975207;28;62800;-78
2023/01/26 09:17:41;;;;;;;;;44.75;29.25;;;;;4.03;100.00;102229.94;4976632;28;45334;-78
2023/01/26 09:20:07;;;;;;;;;52.25;30.75;;;;;4.00;100.00;102241.91;4995615;28;45311;-78
2023/01/26 09:22:33;;;;;;;;;61.00;38.00;;;;;3.97;100.00;102242.69;4995535;28;46616;-78
2023/01/26 09:24:58;;;;;;;;;35.00;24.00;;;;;3.96;100.00;102240.09;4995570;28;45442;-78
2023/01/26 09:27:23;;;;;;;;;44.00;33.00;;;;;3.94;100.00;102234.91;4994784;28;61015;-79
2023/01/26 09:29:49;;;;;;;;;38.75;29.00;;;;;3.99;100.00;102241.03;4994837;28;64362;-78
2023/01/26 09:32:14;;;;;;;;;35.50;25.75;;;;;4.03;100.00;102241.94;4995135;28;45984;-79
2023/01/26 09:34:40;;;;;;;;;42.75;32.25;;;;;4.05;100.00;102248.03;4994972;28;45426;-79
2023/01/26 09:37:06;;;;;;;;;45.25;31.75;;;;;4.07;100.00;102243.78;4995523;28;45457;-79
2023/01/26 09:39:32;;;;;;;;;35.75;27.50;;;;;4.12;100.00;102249.88;4995366;28;45381;-79
2023/01/26 09:42:20;;;;;;;;;53.25;32.75;;;;;4.14;100.00;102253.38;4977560;28;45531;-79
2023/01/26 09:44:53;;;;;;;;;33.25;30.25;;;;;4.11;100.00;102245.56;4977489;28;45462;-79
2023/01/26 09:47:22;;;;;;;;;46.50;32.50;;;;;4.19;100.00;102256.03;4995306;28;45419;-79
2023/01/26 09:49:55;;;;;;;;;34.75;28.00;;;;;4.14;100.00;102247.34;4995322;28;45459;-79
2023/01/26 09:52:32;;;;;;;;;37.25;26.50;;;;;4.13;100.00;102243.03;4977914;28;46294;-79
2023/01/26 09:55:00;;;;;;;;;45.25;30.00;;;;;4.25;100.00;102251.91;4977248;28;45957;-79
2023/01/26 09:57:33;;;;;;;;;40.50;27.50;;;;;4.35;100.00;102255.53;4995348;28;45964;-79
2023/01/26 10:00:15;;;;;;;;;45.50;28.75;;;;;4.36;100.00;102261.56;4977615;28;45616;-79
2023/01/26 10:02:59;;;;;;;;;42.25;32.00;;;;;4.37;100.00;102256.44;4995153;28;45720;-79
2023/01/26 10:05:39;;;;;;;;;35.50;22.75;;;;;4.35;100.00;102255.53;4977240;28;46260;-79
2023/01/26 10:08:12;;;;;;;;;36.75;26.00;;;;;4.36;100.00;102249.53;4977777;28;45400;-79
2023/01/26 10:10:44;;;;;;;;;40.75;25.75;;;;;4.43;100.00;102256.56;4994908;28;45341;-78
2023/01/26 10:13:13;;;;;;;;;51.50;26.25;;;;;4.50;100.00;102262.72;4994804;28;47270;-78
2023/01/26 10:15:43;;;;;;;;;27.00;17.50;;;;;4.59;100.00;102262.91;4978265;28;45893;-79
2023/01/26 10:18:26;;;;;;;;;39.25;28.50;;;;;4.68;100.00;102261.34;4980758;28;45395;-79
2023/01/26 10:20:56;;;;;;;;;35.75;19.75;;;;;4.72;100.00;102258.88;4980995;28;45631;-79
2023/01/26 10:23:27;;;;;;;;;30.00;21.25;;;;;4.76;100.00;102255.50;4980654;28;45656;-79
2023/01/26 10:25:57;;;;;;;;;33.25;25.25;;;;;4.85;100.00;102245.38;4998578;28;45365;-79
2023/01/26 10:28:27;;;;;;;;;32.00;27.50;;;;;4.87;100.00;102267.72;4964319;28;45426;-79
2023/01/26 10:30:53;;;;;;;;;32.50;23.50;;;;;4.91;100.00;102259.22;4998093;28;45604;-79
2023/01/26 10:33:25;;;;;;;;;32.50;27.00;;;;;4.95;100.00;102261.88;4988501;28;45382;-79
2023/01/26 10:35:50;;;;;;;;;38.00;25.75;;;;;4.99;100.00;102268.84;4977222;28;45431;-79
2023/01/26 10:38:31;;;;;;;;;34.25;25.50;;;;;5.01;100.00;102255.97;4976815;28;45370;-79
2023/01/26 10:40:59;;;;;;;;;31.25;23.50;;;;;5.06;100.00;102263.81;4978457;28;45486;-79
2023/01/26 10:43:24;;;;;;;;;30.75;25.50;;;;;5.06;100.00;102250.91;4978411;28;45602;-79
2023/01/26 10:45:50;;;;;;;;;38.00;28.25;;;;;5.10;100.00;102248.38;4978495;28;45422;-79
2023/01/26 10:48:19;;;;;;;;;34.75;27.25;;;;;5.18;100.00;102246.81;4976451;28;62916;-79
2023/01/26 10:50:46;;;;;;;;;36.00;25.00;;;;;5.14;100.00;102242.44;4978468;28;45464;-79
2023/01/26 10:53:28;;;;;;;;;43.50;28.25;;;;;5.13;100.00;102238.13;4976547;28;46685;-79
2023/01/26 10:56:23;;;;;;;;;31.00;23.00;;;;;5.16;100.00;102240.78;4977979;28;45291;-78
2023/01/26 10:58:51;;;;;;;;;33.75;23.75;;;;;5.10;100.00;102226.88;4968473;28;64960;-79
2023/01/26 11:01:21;;;;;;;;;37.00;30.00;;;;;5.23;100.00;102240.00;4976983;28;45396;-79
2023/01/26 11:04:03;;;;;;;;;30.50;25.25;;;;;5.27;100.00;102243.50;4977089;28;46875;-79
2023/01/26 11:06:29;;;;;;;;;35.75;29.00;;;;;5.24;100.00;102240.91;4976707;28;46044;-78
2023/01/26 11:09:14;;;;;;;;;39.25;25.00;;;;;5.19;100.00;102237.38;4976524;28;45414;-79
2023/01/26 11:11:40;;;;;;;;;28.75;24.25;;;;;5.19;100.00;102242.53;4976553;28;45677;-79
2023/01/26 11:14:14;;;;;;;;;36.00;29.00;;;;;5.20;100.00;102231.34;4976522;28;46487;-79
2023/01/26 11:16:45;;;;;;;;;31.50;26.25;;;;;5.26;100.00;102231.47;4977705;28;46015;-79
2023/01/26 11:19:37;;;;;;;;;45.75;30.00;;;;;5.28;100.00;102223.75;4989422;28;45619;-79
2023/01/26 11:22:10;;;;;;;;;27.75;20.00;;;;;5.49;100.00;102228.38;4997135;28;45516;-79
2023/01/26 11:25:14;;;;;;;;;38.50;21.25;;;;;5.55;100.00;102220.72;4996879;28;46936;-79
2023/01/26 11:28:01;;;;;;;;;40.50;32.75;;;;;5.65;100.00;102227.78;4935972;28;45410;-79
2023/01/26 11:31:01;;;;;;;;;44.75;29.75;;;;;5.72;100.00;102226.16;4936846;28;45386;-79
2023/01/26 11:33:30;;;;;;;;;41.00;29.00;;;;;5.75;100.00;102229.66;4936392;28;45412;-79
2023/01/26 11:36:04;;;;;;;;;37.25;28.50;;;;;5.76;100.00;102230.53;4919996;28;46705;-79
2023/01/26 11:38:30;;;;;;;;;36.50;27.00;;;;;5.77;100.00;102227.09;4936294;28;45908;-79
2023/01/26 11:40:58;;;;;;;;;27.00;21.33;;;;;5.77;100.00;102217.63;4936701;28;45468;-79
2023/01/26 11:43:31;;;;;;;;;36.75;26.50;;;;;5.73;100.00;102228.75;4936508;28;45417;-79
2023/01/26 11:45:56;;;;;;;;;27.25;24.75;;;;;5.70;100.00;102220.09;4934461;28;46443;-76
2023/01/26 11:48:40;;;;;;;;;28.00;23.67;;;;;5.65;100.00;102222.63;4930686;28;45567;-75
2023/01/26 11:51:20;;;;;;;;;32.50;24.75;;;;;5.59;100.00;102217.34;4929852;28;45524;-75
2023/01/26 11:54:06;;;;;;;;;29.25;20.75;;;;;5.47;100.00;102228.34;4930472;28;45628;-76
2023/01/26 11:56:40;;;;;;;;;21.00;17.50;;;;;5.34;100.00;102216.97;4930282;28;45903;-75
2023/01/26 11:59:12;;;;;;;;;29.00;22.00;;;;;5.24;100.00;102212.50;4930613;28;46112;-77
2023/01/26 12:01:41;;;;;;;;;25.00;16.75;;;;;5.21;100.00;102221.03;4930197;28;45889;-77